sensor_id;sensor_type;location;lat;lon;timestamp;temperature;humidity
11666;DHT22;5889;51.350;6.708;2022-11-04T00:00:06;11.60;99.90
11666;DHT22;5889;51.350;6.708;2022-11-04T00:02:33;11.50;99.90
11666;DHT22;5889;51.350;6.708;2022-11-04T00:05:00;11.50;99.90
11666;DHT22;5889;51.350;6.708;2022-11-04T00:07:28;11.40;99.90
11666;DHT22;5889;51.350;6.708;2022-11-04T00:10:13;11.40;99.90
11666;DHT22;5889;51.350;6.708;2022-11-04T00:12:40;11.40;99.90
11666;DHT22;5889;51.350;6.708;2022-11-04T00:15:06;11.40;99.90
11666;DHT22;5889;51.350;6.708;2022-11-04T00:17:47;11.40;99.90
11666;DHT22;5889;51.350;6.708;2022-11-04T00:20:14;11.40;99.90
11666;DHT22;5889;51.350;6.708;2022-11-04T00:23:00;11.30;99.90
11666;DHT22;5889;51.350;6.708;2022-11-04T00:25:44;11.30;99.90
11666;DHT22;5889;51.350;6.708;2022-11-04T00:28:28;11.30;99.90
11666;DHT22;5889;51.350;6.708;2022-11-04T00:31:10;11.30;99.90
11666;DHT22;5889;51.350;6.708;2022-11-04T00:33:56;11.30;99.90
11666;DHT22;5889;51.350;6.708;2022-11-04T00:36:24;11.20;99.90
11666;DHT22;5889;51.350;6.708;2022-11-04T00:38:53;11.20;99.90
11666;DHT22;5889;51.350;6.708;2022-11-04T00:41:21;11.20;99.90
11666;DHT22;5889;51.350;6.708;2022-11-04T00:43:56;11.20;99.90
11666;DHT22;5889;51.350;6.708;2022-11-04T00:46:23;11.20;99.90
11666;DHT22;5889;51.350;6.708;2022-11-04T00:48:50;11.20;99.90
11666;DHT22;5889;51.350;6.708;2022-11-04T00:51:17;11.20;99.90
11666;DHT22;5889;51.350;6.708;2022-11-04T00:53:44;11.20;99.90
11666;DHT22;5889;51.350;6.708;2022-11-04T00:56:12;11.20;99.90
11666;DHT22;5889;51.350;6.708;2022-11-04T00:58:39;11.20;99.90
11666;DHT22;5889;51.350;6.708;2022-11-04T01:01:07;11.20;99.90
11666;DHT22;5889;51.350;6.708;2022-11-04T01:03:34;11.20;99.90
11666;DHT22;5889;51.350;6.708;2022-11-04T01:06:01;11.20;99.90
11666;DHT22;5889;51.350;6.708;2022-11-04T01:08:28;11.20;99.90
11666;DHT22;5889;51.350;6.708;2022-11-04T01:10:55;11.20;99.90
11666;DHT22;5889;51.350;6.708;2022-11-04T01:13:23;11.20;99.90
11666;DHT22;5889;51.350;6.708;2022-11-04T01:15:50;11.20;99.90
11666;DHT22;5889;51.350;6.708;2022-11-04T01:18:17;11.20;99.90
11666;DHT22;5889;51.350;6.708;2022-11-04T01:20:44;11.20;99.90
11666;DHT22;5889;51.350;6.708;2022-11-04T01:23:11;11.20;99.90
11666;DHT22;5889;51.350;6.708;2022-11-04T01:25:38;11.10;99.90
11666;DHT22;5889;51.350;6.708;2022-11-04T01:28:06;11.10;99.90
11666;DHT22;5889;51.350;6.708;2022-11-04T01:30:36;11.10;99.90
11666;DHT22;5889;51.350;6.708;2022-11-04T01:33:03;11.10;99.90
11666;DHT22;5889;51.350;6.708;2022-11-04T01:35:30;11.10;99.90
11666;DHT22;5889;51.350;6.708;2022-11-04T01:37:57;11.10;99.90
11666;DHT22;5889;51.350;6.708;2022-11-04T01:40:27;11.00;99.90
11666;DHT22;5889;51.350;6.708;2022-11-04T01:42:54;11.10;99.90
11666;DHT22;5889;51.350;6.708;2022-11-04T01:45:22;11.10;99.90
11666;DHT22;5889;51.350;6.708;2022-11-04T01:47:57;11.10;99.90
11666;DHT22;5889;51.350;6.708;2022-11-04T01:50:28;11.10;99.90
11666;DHT22;5889;51.350;6.708;2022-11-04T01:52:59;11.00;99.90
11666;DHT22;5889;51.350;6.708;2022-11-04T01:55:32;11.00;99.90
11666;DHT22;5889;51.350;6.708;2022-11-04T01:58:03;11.00;99.90
11666;DHT22;5889;51.350;6.708;2022-11-04T02:00:31;11.00;99.90
11666;DHT22;5889;51.350;6.708;2022-11-04T02:03:01;10.90;99.90
11666;DHT22;5889;51.350;6.708;2022-11-04T02:05:31;10.90;99.90
11666;DHT22;5889;51.350;6.708;2022-11-04T02:07:59;10.90;99.90
11666;DHT22;5889;51.350;6.708;2022-11-04T02:10:29;10.80;99.90
11666;DHT22;5889;51.350;6.708;2022-11-04T02:12:57;10.80;99.90
11666;DHT22;5889;51.350;6.708;2022-11-04T02:15:32;10.70;99.90
11666;DHT22;5889;51.350;6.708;2022-11-04T02:18:15;10.70;99.90
11666;DHT22;5889;51.350;6.708;2022-11-04T02:20:59;10.70;99.90
11666;DHT22;5889;51.350;6.708;2022-11-04T02:23:59;10.60;99.90
11666;DHT22;5889;51.350;6.708;2022-11-04T02:27:07;10.60;99.90
11666;DHT22;5889;51.350;6.708;2022-11-04T02:30:07;10.60;99.90
11666;DHT22;5889;51.350;6.708;2022-11-04T02:33:04;10.60;99.90
11666;DHT22;5889;51.350;6.708;2022-11-04T02:35:41;10.60;99.90
11666;DHT22;5889;51.350;6.708;2022-11-04T02:38:14;10.60;99.90
11666;DHT22;5889;51.350;6.708;2022-11-04T02:40:44;10.60;99.90
11666;DHT22;5889;51.350;6.708;2022-11-04T02:43:21;10.60;99.90
11666;DHT22;5889;51.350;6.708;2022-11-04T02:45:54;10.60;99.90
11666;DHT22;5889;51.350;6.708;2022-11-04T02:48:29;10.50;99.90
11666;DHT22;5889;51.350;6.708;2022-11-04T02:51:02;10.50;99.90
11666;DHT22;5889;51.350;6.708;2022-11-04T02:53:33;10.40;99.90
11666;DHT22;5889;51.350;6.708;2022-11-04T02:56:03;10.40;99.90
11666;DHT22;5889;51.350;6.708;2022-11-04T02:58:35;10.30;99.90
11666;DHT22;5889;51.350;6.708;2022-11-04T03:01:05;10.30;99.90
11666;DHT22;5889;51.350;6.708;2022-11-04T03:03:38;10.20;99.90
11666;DHT22;5889;51.350;6.708;2022-11-04T03:06:08;10.20;99.90
11666;DHT22;5889;51.350;6.708;2022-11-04T03:08:39;10.20;99.90
11666;DHT22;5889;51.350;6.708;2022-11-04T03:11:10;10.10;99.90
11666;DHT22;5889;51.350;6.708;2022-11-04T03:13:40;10.00;99.90
11666;DHT22;5889;51.350;6.708;2022-11-04T03:16:13;10.00;99.90
11666;DHT22;5889;51.350;6.708;2022-11-04T03:18:48;10.00;99.90
11666;DHT22;5889;51.350;6.708;2022-11-04T03:21:21;10.00;99.90
11666;DHT22;5889;51.350;6.708;2022-11-04T03:23:50;9.90;99.90
11666;DHT22;5889;51.350;6.708;2022-11-04T03:26:20;9.90;99.90
11666;DHT22;5889;51.350;6.708;2022-11-04T03:28:54;9.90;99.90
11666;DHT22;5889;51.350;6.708;2022-11-04T03:31:27;9.90;99.90
11666;DHT22;5889;51.350;6.708;2022-11-04T03:33:56;9.80;99.90
11666;DHT22;5889;51.350;6.708;2022-11-04T03:36:23;9.80;99.90
11666;DHT22;5889;51.350;6.708;2022-11-04T03:38:51;9.80;99.90
11666;DHT22;5889;51.350;6.708;2022-11-04T03:41:23;9.70;99.90
11666;DHT22;5889;51.350;6.708;2022-11-04T03:43:52;9.70;99.90
11666;DHT22;5889;51.350;6.708;2022-11-04T03:46:20;9.70;99.90
11666;DHT22;5889;51.350;6.708;2022-11-04T03:48:50;9.60;99.90
11666;DHT22;5889;51.350;6.708;2022-11-04T03:51:18;9.60;99.90
11666;DHT22;5889;51.350;6.708;2022-11-04T03:53:45;9.60;99.90
11666;DHT22;5889;51.350;6.708;2022-11-04T03:56:28;9.50;99.90
11666;DHT22;5889;51.350;6.708;2022-11-04T03:59:11;9.50;99.90
11666;DHT22;5889;51.350;6.708;2022-11-04T04:01:48;9.50;99.90
11666;DHT22;5889;51.350;6.708;2022-11-04T04:04:22;9.50;99.90
11666;DHT22;5889;51.350;6.708;2022-11-04T04:06:58;9.50;99.90
11666;DHT22;5889;51.350;6.708;2022-11-04T04:09:41;9.50;99.90
11666;DHT22;5889;51.350;6.708;2022-11-04T04:12:12;9.50;99.90
11666;DHT22;5889;51.350;6.708;2022-11-04T04:14:46;9.50;99.90
11666;DHT22;5889;51.350;6.708;2022-11-04T04:17:18;9.50;99.90
11666;DHT22;5889;51.350;6.708;2022-11-04T04:19:52;9.50;99.90
11666;DHT22;5889;51.350;6.708;2022-11-04T04:22:22;9.50;99.90
11666;DHT22;5889;51.350;6.708;2022-11-04T04:24:53;9.40;99.90
11666;DHT22;5889;51.350;6.708;2022-11-04T04:27:38;9.40;99.90
11666;DHT22;5889;51.350;6.708;2022-11-04T04:30:07;9.40;99.90
11666;DHT22;5889;51.350;6.708;2022-11-04T04:32:37;9.40;99.90
11666;DHT22;5889;51.350;6.708;2022-11-04T04:35:08;9.30;99.90
11666;DHT22;5889;51.350;6.708;2022-11-04T04:37:55;9.30;99.90
11666;DHT22;5889;51.350;6.708;2022-11-04T04:40:46;9.30;99.90
11666;DHT22;5889;51.350;6.708;2022-11-04T04:43:40;9.30;99.90
11666;DHT22;5889;51.350;6.708;2022-11-04T04:46:26;9.30;99.90
11666;DHT22;5889;51.350;6.708;2022-11-04T04:48:53;9.30;99.90
11666;DHT22;5889;51.350;6.708;2022-11-04T04:51:21;9.30;99.90
11666;DHT22;5889;51.350;6.708;2022-11-04T04:53:49;9.30;99.90
11666;DHT22;5889;51.350;6.708;2022-11-04T04:56:16;9.30;99.90
11666;DHT22;5889;51.350;6.708;2022-11-04T04:58:42;9.30;99.90
11666;DHT22;5889;51.350;6.708;2022-11-04T05:01:09;9.30;99.90
11666;DHT22;5889;51.350;6.708;2022-11-04T05:03:36;9.30;99.90
11666;DHT22;5889;51.350;6.708;2022-11-04T05:06:03;9.20;99.90
11666;DHT22;5889;51.350;6.708;2022-11-04T05:08:31;9.30;99.90
11666;DHT22;5889;51.350;6.708;2022-11-04T05:10:59;9.30;99.90
11666;DHT22;5889;51.350;6.708;2022-11-04T05:13:26;9.30;99.90
11666;DHT22;5889;51.350;6.708;2022-11-04T05:15:55;9.20;99.90
11666;DHT22;5889;51.350;6.708;2022-11-04T05:18:22;9.20;99.90
11666;DHT22;5889;51.350;6.708;2022-11-04T05:20:49;9.20;99.90
11666;DHT22;5889;51.350;6.708;2022-11-04T05:23:16;9.20;99.90
11666;DHT22;5889;51.350;6.708;2022-11-04T05:25:44;9.20;99.90
11666;DHT22;5889;51.350;6.708;2022-11-04T05:28:11;9.20;99.90
11666;DHT22;5889;51.350;6.708;2022-11-04T05:30:38;9.20;99.90
11666;DHT22;5889;51.350;6.708;2022-11-04T05:33:05;9.20;99.90
11666;DHT22;5889;51.350;6.708;2022-11-04T05:35:32;9.20;99.90
11666;DHT22;5889;51.350;6.708;2022-11-04T05:38:00;9.20;99.90
11666;DHT22;5889;51.350;6.708;2022-11-04T05:40:26;9.20;99.90
11666;DHT22;5889;51.350;6.708;2022-11-04T05:42:56;9.20;99.90
11666;DHT22;5889;51.350;6.708;2022-11-04T05:45:24;9.10;99.90
11666;DHT22;5889;51.350;6.708;2022-11-04T05:47:56;9.10;99.90
11666;DHT22;5889;51.350;6.708;2022-11-04T05:50:23;9.10;99.90
11666;DHT22;5889;51.350;6.708;2022-11-04T05:52:50;9.10;99.90
11666;DHT22;5889;51.350;6.708;2022-11-04T05:55:17;9.10;99.90
11666;DHT22;5889;51.350;6.708;2022-11-04T05:57:44;9.20;99.90
11666;DHT22;5889;51.350;6.708;2022-11-04T06:00:13;9.20;99.90
11666;DHT22;5889;51.350;6.708;2022-11-04T06:02:40;9.20;99.90
11666;DHT22;5889;51.350;6.708;2022-11-04T06:05:08;9.20;99.90
11666;DHT22;5889;51.350;6.708;2022-11-04T06:07:35;9.20;99.90
11666;DHT22;5889;51.350;6.708;2022-11-04T06:10:02;9.20;99.90
11666;DHT22;5889;51.350;6.708;2022-11-04T06:12:29;9.10;99.90
11666;DHT22;5889;51.350;6.708;2022-11-04T06:14:56;9.10;99.90
11666;DHT22;5889;51.350;6.708;2022-11-04T06:17:24;9.20;99.90
11666;DHT22;5889;51.350;6.708;2022-11-04T06:19:51;9.20;99.90
11666;DHT22;5889;51.350;6.708;2022-11-04T06:22:18;9.20;99.90
11666;DHT22;5889;51.350;6.708;2022-11-04T06:24:45;9.10;99.90
11666;DHT22;5889;51.350;6.708;2022-11-04T06:27:13;9.20;99.90
11666;DHT22;5889;51.350;6.708;2022-11-04T06:29:40;9.10;99.90
11666;DHT22;5889;51.350;6.708;2022-11-04T06:32:07;9.20;99.90
11666;DHT22;5889;51.350;6.708;2022-11-04T06:34:36;9.20;99.90
11666;DHT22;5889;51.350;6.708;2022-11-04T06:37:03;9.20;99.90
11666;DHT22;5889;51.350;6.708;2022-11-04T06:39:30;9.20;99.90
11666;DHT22;5889;51.350;6.708;2022-11-04T06:41:57;9.20;99.90
11666;DHT22;5889;51.350;6.708;2022-11-04T06:44:24;9.10;99.90
11666;DHT22;5889;51.350;6.708;2022-11-04T06:46:51;9.10;99.90
11666;DHT22;5889;51.350;6.708;2022-11-04T06:49:19;9.10;99.90
11666;DHT22;5889;51.350;6.708;2022-11-04T06:51:49;9.20;99.90
11666;DHT22;5889;51.350;6.708;2022-11-04T06:54:17;9.20;99.90
11666;DHT22;5889;51.350;6.708;2022-11-04T06:56:44;9.20;99.90
11666;DHT22;5889;51.350;6.708;2022-11-04T06:59:15;9.20;99.90
11666;DHT22;5889;51.350;6.708;2022-11-04T07:01:42;9.30;99.90
11666;DHT22;5889;51.350;6.708;2022-11-04T07:04:09;9.30;99.90
11666;DHT22;5889;51.350;6.708;2022-11-04T07:06:36;9.40;99.90
11666;DHT22;5889;51.350;6.708;2022-11-04T07:09:05;9.40;99.90
11666;DHT22;5889;51.350;6.708;2022-11-04T07:11:32;9.40;99.90
11666;DHT22;5889;51.350;6.708;2022-11-04T07:13:59;9.50;99.90
11666;DHT22;5889;51.350;6.708;2022-11-04T07:16:26;9.50;99.90
11666;DHT22;5889;51.350;6.708;2022-11-04T07:18:53;9.50;99.90
11666;DHT22;5889;51.350;6.708;2022-11-04T07:21:20;9.60;99.90
11666;DHT22;5889;51.350;6.708;2022-11-04T07:23:47;9.60;99.90
11666;DHT22;5889;51.350;6.708;2022-11-04T07:26:17;9.60;99.90
11666;DHT22;5889;51.350;6.708;2022-11-04T07:28:44;9.70;99.90
11666;DHT22;5889;51.350;6.708;2022-11-04T07:31:12;9.80;99.90
11666;DHT22;5889;51.350;6.708;2022-11-04T07:33:39;9.80;99.90
11666;DHT22;5889;51.350;6.708;2022-11-04T07:36:11;9.80;99.90
11666;DHT22;5889;51.350;6.708;2022-11-04T07:38:38;9.80;99.90
11666;DHT22;5889;51.350;6.708;2022-11-04T07:41:05;9.90;99.90
11666;DHT22;5889;51.350;6.708;2022-11-04T07:43:34;9.90;99.90
11666;DHT22;5889;51.350;6.708;2022-11-04T07:46:02;9.90;99.90
11666;DHT22;5889;51.350;6.708;2022-11-04T07:48:30;10.00;99.90
11666;DHT22;5889;51.350;6.708;2022-11-04T07:50:57;10.00;99.90
11666;DHT22;5889;51.350;6.708;2022-11-04T07:53:25;10.00;99.90
11666;DHT22;5889;51.350;6.708;2022-11-04T07:55:52;10.10;99.90
11666;DHT22;5889;51.350;6.708;2022-11-04T07:58:20;10.10;99.90
11666;DHT22;5889;51.350;6.708;2022-11-04T08:00:48;10.10;99.90
11666;DHT22;5889;51.350;6.708;2022-11-04T08:03:17;10.30;99.90
11666;DHT22;5889;51.350;6.708;2022-11-04T08:05:43;10.30;99.90
11666;DHT22;5889;51.350;6.708;2022-11-04T08:08:10;10.40;99.90
11666;DHT22;5889;51.350;6.708;2022-11-04T08:10:37;10.40;99.90
11666;DHT22;5889;51.350;6.708;2022-11-04T08:13:04;10.50;99.90
11666;DHT22;5889;51.350;6.708;2022-11-04T08:15:31;10.50;99.90
11666;DHT22;5889;51.350;6.708;2022-11-04T08:18:02;10.50;99.90
11666;DHT22;5889;51.350;6.708;2022-11-04T08:20:30;10.50;99.90
11666;DHT22;5889;51.350;6.708;2022-11-04T08:22:57;10.60;99.90
11666;DHT22;5889;51.350;6.708;2022-11-04T08:25:24;10.70;99.90
11666;DHT22;5889;51.350;6.708;2022-11-04T08:27:51;10.80;99.90
11666;DHT22;5889;51.350;6.708;2022-11-04T08:30:18;10.80;99.90
11666;DHT22;5889;51.350;6.708;2022-11-04T08:32:45;11.00;99.90
11666;DHT22;5889;51.350;6.708;2022-11-04T08:35:13;11.10;99.90
11666;DHT22;5889;51.350;6.708;2022-11-04T08:37:40;11.20;99.90
11666;DHT22;5889;51.350;6.708;2022-11-04T08:40:08;11.30;99.90
11666;DHT22;5889;51.350;6.708;2022-11-04T08:42:35;11.40;99.90
11666;DHT22;5889;51.350;6.708;2022-11-04T08:45:02;11.50;99.90
11666;DHT22;5889;51.350;6.708;2022-11-04T08:47:29;11.50;99.90
11666;DHT22;5889;51.350;6.708;2022-11-04T08:49:57;11.60;99.90
11666;DHT22;5889;51.350;6.708;2022-11-04T08:52:25;11.60;99.90
11666;DHT22;5889;51.350;6.708;2022-11-04T08:54:53;11.60;99.90
11666;DHT22;5889;51.350;6.708;2022-11-04T08:57:19;11.60;99.90
11666;DHT22;5889;51.350;6.708;2022-11-04T08:59:47;11.50;99.90
11666;DHT22;5889;51.350;6.708;2022-11-04T09:02:14;11.50;99.90
11666;DHT22;5889;51.350;6.708;2022-11-04T09:04:41;11.40;99.90
11666;DHT22;5889;51.350;6.708;2022-11-04T09:07:08;11.40;99.90
11666;DHT22;5889;51.350;6.708;2022-11-04T09:09:39;11.40;99.90
11666;DHT22;5889;51.350;6.708;2022-11-04T09:12:08;11.50;99.90
11666;DHT22;5889;51.350;6.708;2022-11-04T09:14:35;11.50;99.90
11666;DHT22;5889;51.350;6.708;2022-11-04T09:17:02;11.60;99.90
11666;DHT22;5889;51.350;6.708;2022-11-04T09:19:29;11.60;99.90
11666;DHT22;5889;51.350;6.708;2022-11-04T09:21:57;11.70;99.90
11666;DHT22;5889;51.350;6.708;2022-11-04T09:24:24;11.80;99.90
11666;DHT22;5889;51.350;6.708;2022-11-04T09:26:52;11.90;99.90
11666;DHT22;5889;51.350;6.708;2022-11-04T09:29:19;11.90;99.90
11666;DHT22;5889;51.350;6.708;2022-11-04T09:31:46;12.00;99.90
11666;DHT22;5889;51.350;6.708;2022-11-04T09:34:14;12.10;99.90
11666;DHT22;5889;51.350;6.708;2022-11-04T09:36:41;12.20;99.90
11666;DHT22;5889;51.350;6.708;2022-11-04T09:39:09;12.30;99.90
11666;DHT22;5889;51.350;6.708;2022-11-04T09:44:52;12.40;99.90
11666;DHT22;5889;51.350;6.708;2022-11-04T09:47:21;12.50;99.90
11666;DHT22;5889;51.350;6.708;2022-11-04T09:49:52;12.60;99.90
11666;DHT22;5889;51.350;6.708;2022-11-04T09:52:22;12.80;99.90
11666;DHT22;5889;51.350;6.708;2022-11-04T09:54:53;12.90;99.90
11666;DHT22;5889;51.350;6.708;2022-11-04T09:57:26;12.90;99.90
11666;DHT22;5889;51.350;6.708;2022-11-04T09:59:54;13.10;99.90
11666;DHT22;5889;51.350;6.708;2022-11-04T10:02:33;13.20;99.90
11666;DHT22;5889;51.350;6.708;2022-11-04T10:05:09;13.10;99.90
11666;DHT22;5889;51.350;6.708;2022-11-04T10:07:58;13.20;99.90
11666;DHT22;5889;51.350;6.708;2022-11-04T10:10:36;13.30;99.90
11666;DHT22;5889;51.350;6.708;2022-11-04T10:13:14;13.40;99.90
11666;DHT22;5889;51.350;6.708;2022-11-04T10:16:06;13.60;99.90
11666;DHT22;5889;51.350;6.708;2022-11-04T10:18:48;13.70;99.90
11666;DHT22;5889;51.350;6.708;2022-11-04T10:21:26;13.80;99.90
11666;DHT22;5889;51.350;6.708;2022-11-04T10:24:06;13.80;99.90
11666;DHT22;5889;51.350;6.708;2022-11-04T10:26:38;13.80;99.90
11666;DHT22;5889;51.350;6.708;2022-11-04T10:29:12;13.80;99.90
11666;DHT22;5889;51.350;6.708;2022-11-04T10:31:43;13.90;99.90
11666;DHT22;5889;51.350;6.708;2022-11-04T10:34:19;14.00;99.90
11666;DHT22;5889;51.350;6.708;2022-11-04T10:36:49;14.10;99.90
11666;DHT22;5889;51.350;6.708;2022-11-04T10:39:24;14.10;99.90
11666;DHT22;5889;51.350;6.708;2022-11-04T10:41:52;14.00;99.90
11666;DHT22;5889;51.350;6.708;2022-11-04T10:44:21;14.00;99.90
11666;DHT22;5889;51.350;6.708;2022-11-04T10:46:57;14.00;99.90
11666;DHT22;5889;51.350;6.708;2022-11-04T10:49:42;13.90;99.90
11666;DHT22;5889;51.350;6.708;2022-11-04T10:52:13;14.00;99.90
11666;DHT22;5889;51.350;6.708;2022-11-04T10:54:41;14.00;99.90
11666;DHT22;5889;51.350;6.708;2022-11-04T10:57:09;13.90;99.90
11666;DHT22;5889;51.350;6.708;2022-11-04T10:59:46;14.00;99.90
11666;DHT22;5889;51.350;6.708;2022-11-04T11:02:15;14.00;99.90
11666;DHT22;5889;51.350;6.708;2022-11-04T11:04:42;14.10;99.90
11666;DHT22;5889;51.350;6.708;2022-11-04T11:07:14;14.10;99.90
11666;DHT22;5889;51.350;6.708;2022-11-04T11:09:50;14.10;99.90
11666;DHT22;5889;51.350;6.708;2022-11-04T11:12:20;14.10;99.90
11666;DHT22;5889;51.350;6.708;2022-11-04T11:14:55;14.10;99.90
11666;DHT22;5889;51.350;6.708;2022-11-04T11:17:34;14.10;99.90
11666;DHT22;5889;51.350;6.708;2022-11-04T11:20:18;14.20;99.90
11666;DHT22;5889;51.350;6.708;2022-11-04T11:22:46;14.20;99.90
11666;DHT22;5889;51.350;6.708;2022-11-04T11:25:26;14.20;99.90
11666;DHT22;5889;51.350;6.708;2022-11-04T11:27:55;14.10;99.90
11666;DHT22;5889;51.350;6.708;2022-11-04T11:30:25;14.10;99.90
11666;DHT22;5889;51.350;6.708;2022-11-04T11:32:56;14.10;99.90
11666;DHT22;5889;51.350;6.708;2022-11-04T11:35:31;14.10;99.90
11666;DHT22;5889;51.350;6.708;2022-11-04T11:37:59;14.20;99.90
11666;DHT22;5889;51.350;6.708;2022-11-04T11:40:30;14.20;99.90
11666;DHT22;5889;51.350;6.708;2022-11-04T11:42:59;14.20;99.90
11666;DHT22;5889;51.350;6.708;2022-11-04T11:45:27;14.20;99.90
11666;DHT22;5889;51.350;6.708;2022-11-04T11:47:56;14.20;99.90
11666;DHT22;5889;51.350;6.708;2022-11-04T11:50:25;14.20;99.90
11666;DHT22;5889;51.350;6.708;2022-11-04T11:53:12;14.20;99.90
11666;DHT22;5889;51.350;6.708;2022-11-04T11:55:43;14.10;99.90
11666;DHT22;5889;51.350;6.708;2022-11-04T11:58:19;13.90;99.90
11666;DHT22;5889;51.350;6.708;2022-11-04T12:00:51;13.70;99.90
11666;DHT22;5889;51.350;6.708;2022-11-04T12:03:26;13.50;99.90
11666;DHT22;5889;51.350;6.708;2022-11-04T12:06:06;13.50;99.90
11666;DHT22;5889;51.350;6.708;2022-11-04T12:08:55;13.50;99.90
11666;DHT22;5889;51.350;6.708;2022-11-04T12:11:29;13.50;99.90
11666;DHT22;5889;51.350;6.708;2022-11-04T12:14:00;13.40;99.90
11666;DHT22;5889;51.350;6.708;2022-11-04T12:16:35;13.50;99.90
11666;DHT22;5889;51.350;6.708;2022-11-04T12:19:21;13.60;99.90
11666;DHT22;5889;51.350;6.708;2022-11-04T12:21:58;13.70;99.90
11666;DHT22;5889;51.350;6.708;2022-11-04T12:24:36;13.80;99.90
11666;DHT22;5889;51.350;6.708;2022-11-04T12:27:13;13.80;99.90
11666;DHT22;5889;51.350;6.708;2022-11-04T12:30:00;13.80;99.90
11666;DHT22;5889;51.350;6.708;2022-11-04T12:32:35;13.90;99.90
11666;DHT22;5889;51.350;6.708;2022-11-04T12:35:17;14.10;99.90
11666;DHT22;5889;51.350;6.708;2022-11-04T12:37:51;14.20;99.90
11666;DHT22;5889;51.350;6.708;2022-11-04T12:40:26;14.30;99.90
11666;DHT22;5889;51.350;6.708;2022-11-04T12:43:05;14.50;99.90
11666;DHT22;5889;51.350;6.708;2022-11-04T12:45:44;14.50;99.90
11666;DHT22;5889;51.350;6.708;2022-11-04T12:48:30;14.30;99.90
11666;DHT22;5889;51.350;6.708;2022-11-04T12:51:04;14.10;99.90
11666;DHT22;5889;51.350;6.708;2022-11-04T12:54:05;14.00;99.90
11666;DHT22;5889;51.350;6.708;2022-11-04T12:56:36;13.90;99.90
11666;DHT22;5889;51.350;6.708;2022-11-04T12:59:24;13.80;99.90
11666;DHT22;5889;51.350;6.708;2022-11-04T13:01:56;13.80;99.90
11666;DHT22;5889;51.350;6.708;2022-11-04T13:04:31;14.00;99.90
11666;DHT22;5889;51.350;6.708;2022-11-04T13:07:04;14.00;99.90
11666;DHT22;5889;51.350;6.708;2022-11-04T13:09:37;14.00;99.90
11666;DHT22;5889;51.350;6.708;2022-11-04T13:12:09;14.10;99.90
11666;DHT22;5889;51.350;6.708;2022-11-04T13:14:43;14.20;99.90
11666;DHT22;5889;51.350;6.708;2022-11-04T13:17:14;14.20;99.90
11666;DHT22;5889;51.350;6.708;2022-11-04T13:19:45;14.20;99.90
11666;DHT22;5889;51.350;6.708;2022-11-04T13:22:17;14.20;99.90
11666;DHT22;5889;51.350;6.708;2022-11-04T13:24:47;14.20;99.90
11666;DHT22;5889;51.350;6.708;2022-11-04T13:27:20;14.30;99.90
11666;DHT22;5889;51.350;6.708;2022-11-04T13:29:49;14.40;99.90
11666;DHT22;5889;51.350;6.708;2022-11-04T13:32:22;14.40;99.90
11666;DHT22;5889;51.350;6.708;2022-11-04T13:34:56;14.50;99.90
11666;DHT22;5889;51.350;6.708;2022-11-04T13:37:28;14.60;99.90
11666;DHT22;5889;51.350;6.708;2022-11-04T13:39:59;14.70;99.90
11666;DHT22;5889;51.350;6.708;2022-11-04T13:42:44;14.80;99.90
11666;DHT22;5889;51.350;6.708;2022-11-04T13:45:16;14.90;99.90
11666;DHT22;5889;51.350;6.708;2022-11-04T13:47:46;14.60;99.90
11666;DHT22;5889;51.350;6.708;2022-11-04T13:50:32;14.20;99.90
11666;DHT22;5889;51.350;6.708;2022-11-04T13:53:04;13.90;99.90
11666;DHT22;5889;51.350;6.708;2022-11-04T13:55:32;13.60;99.90
11666;DHT22;5889;51.350;6.708;2022-11-04T13:58:02;13.40;99.90
11666;DHT22;5889;51.350;6.708;2022-11-04T14:00:30;13.10;99.90
11666;DHT22;5889;51.350;6.708;2022-11-04T14:02:59;13.00;99.90
11666;DHT22;5889;51.350;6.708;2022-11-04T14:06:03;12.80;99.90
11666;DHT22;5889;51.350;6.708;2022-11-04T14:08:32;12.70;99.90
11666;DHT22;5889;51.350;6.708;2022-11-04T14:11:10;12.60;99.90
11666;DHT22;5889;51.350;6.708;2022-11-04T14:14:02;12.50;99.90
11666;DHT22;5889;51.350;6.708;2022-11-04T14:16:40;12.50;99.90
11666;DHT22;5889;51.350;6.708;2022-11-04T14:22:30;12.40;99.90
11666;DHT22;5889;51.350;6.708;2022-11-04T14:25:01;12.40;99.90
11666;DHT22;5889;51.350;6.708;2022-11-04T14:27:38;12.40;99.90
11666;DHT22;5889;51.350;6.708;2022-11-04T14:30:25;12.40;99.90
11666;DHT22;5889;51.350;6.708;2022-11-04T14:32:54;12.40;99.90
11666;DHT22;5889;51.350;6.708;2022-11-04T14:35:22;12.50;99.90
11666;DHT22;5889;51.350;6.708;2022-11-04T14:37:51;12.50;99.90
11666;DHT22;5889;51.350;6.708;2022-11-04T14:40:25;12.50;99.90
11666;DHT22;5889;51.350;6.708;2022-11-04T14:42:53;12.50;99.90
11666;DHT22;5889;51.350;6.708;2022-11-04T14:45:23;12.50;99.90
11666;DHT22;5889;51.350;6.708;2022-11-04T14:47:53;12.50;99.90
11666;DHT22;5889;51.350;6.708;2022-11-04T14:50:23;12.50;99.90
11666;DHT22;5889;51.350;6.708;2022-11-04T14:52:54;12.50;99.90
11666;DHT22;5889;51.350;6.708;2022-11-04T14:55:25;12.40;99.90
11666;DHT22;5889;51.350;6.708;2022-11-04T14:57:55;12.30;99.90
11666;DHT22;5889;51.350;6.708;2022-11-04T15:00:28;12.30;99.90
11666;DHT22;5889;51.350;6.708;2022-11-04T15:03:13;12.30;99.90
11666;DHT22;5889;51.350;6.708;2022-11-04T15:05:47;12.20;99.90
11666;DHT22;5889;51.350;6.708;2022-11-04T15:08:29;12.30;99.90
11666;DHT22;5889;51.350;6.708;2022-11-04T15:11:06;12.20;99.90
11666;DHT22;5889;51.350;6.708;2022-11-04T15:13:35;12.20;99.90
11666;DHT22;5889;51.350;6.708;2022-11-04T15:16:07;12.10;99.90
11666;DHT22;5889;51.350;6.708;2022-11-04T15:18:37;12.00;99.90
11666;DHT22;5889;51.350;6.708;2022-11-04T15:21:07;11.90;99.90
11666;DHT22;5889;51.350;6.708;2022-11-04T15:23:36;11.90;99.90
11666;DHT22;5889;51.350;6.708;2022-11-04T15:26:13;11.80;99.90
11666;DHT22;5889;51.350;6.708;2022-11-04T15:28:46;11.80;99.90
11666;DHT22;5889;51.350;6.708;2022-11-04T15:31:16;11.80;99.90
11666;DHT22;5889;51.350;6.708;2022-11-04T15:33:46;11.80;99.90
11666;DHT22;5889;51.350;6.708;2022-11-04T15:36:16;11.80;99.90
11666;DHT22;5889;51.350;6.708;2022-11-04T15:38:47;11.80;99.90
11666;DHT22;5889;51.350;6.708;2022-11-04T15:41:18;11.80;99.90
11666;DHT22;5889;51.350;6.708;2022-11-04T15:44:03;11.80;99.90
11666;DHT22;5889;51.350;6.708;2022-11-04T15:46:30;11.70;99.90
11666;DHT22;5889;51.350;6.708;2022-11-04T15:49:02;11.80;99.90
11666;DHT22;5889;51.350;6.708;2022-11-04T15:51:34;11.70;99.90
11666;DHT22;5889;51.350;6.708;2022-11-04T15:54:05;11.70;99.90
11666;DHT22;5889;51.350;6.708;2022-11-04T15:56:39;11.70;99.90
11666;DHT22;5889;51.350;6.708;2022-11-04T15:59:08;11.70;99.90
11666;DHT22;5889;51.350;6.708;2022-11-04T16:01:44;11.70;99.90
11666;DHT22;5889;51.350;6.708;2022-11-04T16:04:12;11.70;99.90
11666;DHT22;5889;51.350;6.708;2022-11-04T16:06:40;11.70;99.90
11666;DHT22;5889;51.350;6.708;2022-11-04T16:09:19;11.70;99.90
11666;DHT22;5889;51.350;6.708;2022-11-04T16:12:11;11.80;99.90
11666;DHT22;5889;51.350;6.708;2022-11-04T16:14:46;11.80;99.90
11666;DHT22;5889;51.350;6.708;2022-11-04T16:17:13;11.70;99.90
11666;DHT22;5889;51.350;6.708;2022-11-04T16:19:45;11.70;99.90
11666;DHT22;5889;51.350;6.708;2022-11-04T16:22:17;11.60;99.90
11666;DHT22;5889;51.350;6.708;2022-11-04T16:24:46;11.60;99.90